Time;durP1;ratioP1;P1;durP2;ratioP2;P2;SDS_P1;SDS_P2;PMS_P1;PMS_P2;Temp;Humidity;BMP_temperature;BMP_pressure;BME280_temperature;BME280_humidity;BME280_pressure;Samples;Min_cycle;Max_cycle;Signal;HPM_P1;HPM_P2
2022/08/14 00:00:21;;;;;;;4.88;3.60;;;23.60;98.80;;;;;;5094135;28;20615;-53
2022/08/14 00:02:47;;;;;;;7.10;4.55;;;23.60;99.40;;;;;;5094019;28;20720;-54
2022/08/14 00:05:16;;;;;;;5.18;3.55;;;23.60;99.40;;;;;;5094437;28;20178;-53
2022/08/14 00:07:42;;;;;;;5.40;3.63;;;23.60;99.70;;;;;;5093852;28;20554;-52
2022/08/14 00:10:15;;;;;;;4.70;3.80;;;23.60;98.90;;;;;;5093960;28;20162;-52
2022/08/14 00:12:54;;;;;;;3.95;3.53;;;23.60;99.90;;;;;;5094020;28;20204;-43
2022/08/14 00:15:29;;;;;;;4.65;3.15;;;23.60;99.50;;;;;;5093740;28;20165;-44
2022/08/14 00:17:56;;;;;;;3.75;3.45;;;23.50;99.90;;;;;;5093936;28;20247;-53
2022/08/14 00:20:25;;;;;;;5.07;3.50;;;23.50;99.30;;;;;;5094114;28;20584;-49
2022/08/14 00:22:51;;;;;;;3.65;3.15;;;23.50;99.90;;;;;;5093985;28;20207;-46
2022/08/14 00:25:16;;;;;;;4.20;3.45;;;23.50;99.90;;;;;;5093729;28;20212;-42
2022/08/14 00:27:42;;;;;;;4.32;3.70;;;23.50;99.90;;;;;;5094180;28;20641;-53
2022/08/14 00:30:10;;;;;;;3.80;3.45;;;23.50;99.90;;;;;;5093879;28;20195;-49
2022/08/14 00:32:36;;;;;;;3.35;3.00;;;23.50;99.90;;;;;;5093448;28;20201;-47
2022/08/14 00:35:04;;;;;;;6.85;3.50;;;23.50;99.90;;;;;;5093531;28;20214;-44
2022/08/14 00:37:30;;;;;;;3.75;3.33;;;23.40;99.90;;;;;;5093759;28;20219;-45
2022/08/14 00:39:56;;;;;;;5.38;3.50;;;23.30;99.90;;;;;;5093478;28;20246;-48
2022/08/14 00:42:23;;;;;;;6.50;3.97;;;23.30;99.90;;;;;;5093428;28;20211;-49
2022/08/14 00:44:49;;;;;;;4.05;3.17;;;23.30;99.90;;;;;;5093363;28;20169;-50
2022/08/14 00:47:17;;;;;;;4.53;3.85;;;23.30;99.90;;;;;;5093214;28;20169;-52
2022/08/14 00:49:43;;;;;;;7.68;4.53;;;23.30;99.90;;;;;;5093487;28;20174;-54
2022/08/14 00:52:14;;;;;;;4.53;3.50;;;24.50;99.90;;;;;;5093618;28;20219;-52
2022/08/14 00:54:41;;;;;;;5.80;4.47;;;23.30;99.90;;;;;;5093389;28;20158;-52
2022/08/14 00:57:07;;;;;;;3.85;3.55;;;23.30;99.90;;;;;;5093034;28;20257;-53
2022/08/14 00:59:34;;;;;;;5.88;3.17;;;23.30;99.90;;;;;;5092923;28;20241;-52
2022/08/14 01:02:00;;;;;;;4.05;3.60;;;23.30;99.90;;;;;;5074875;28;20180;-43
2022/08/14 01:04:28;;;;;;;5.40;3.53;;;23.30;99.90;;;;;;5092890;28;20172;-44
2022/08/14 01:06:54;;;;;;;6.28;3.78;;;23.20;99.90;;;;;;5092884;28;20534;-52
2022/08/14 01:09:21;;;;;;;6.57;3.28;;;23.20;99.90;;;;;;5092931;28;20165;-53
2022/08/14 01:11:51;;;;;;;4.47;3.55;;;23.20;99.90;;;;;;5092639;28;20217;-54
2022/08/14 01:14:18;;;;;;;3.80;3.42;;;23.10;99.90;;;;;;5092648;28;20292;-53
2022/08/14 01:16:45;;;;;;;4.88;3.55;;;23.10;99.90;;;;;;5092671;28;20158;-51
2022/08/14 01:21:55;;;;;;;4.38;3.53;;;23.10;99.90;;;;;;5092670;28;20172;-43
2022/08/14 01:24:22;;;;;;;3.47;3.17;;;23.10;99.90;;;;;;5092859;28;20170;-42
2022/08/14 01:26:48;;;;;;;3.85;3.55;;;23.10;99.90;;;;;;5091852;28;20169;-46
2022/08/14 01:29:14;;;;;;;4.13;3.78;;;22.90;99.90;;;;;;5092429;28;20172;-44
2022/08/14 01:34:09;;;;;;;5.55;3.40;;;23.00;99.90;;;;;;5093017;28;20506;-47
2022/08/14 01:36:36;;;;;;;5.15;3.47;;;22.90;99.90;;;;;;5092418;28;20164;-44
2022/08/14 01:39:13;;;;;;;3.67;3.38;;;22.80;99.90;;;;;;5092256;28;20173;-43
2022/08/14 01:41:41;;;;;;;5.78;3.78;;;22.80;99.90;;;;;;5092648;28;20561;-43
2022/08/14 01:44:11;;;;;;;4.50;3.92;;;22.80;99.90;;;;;;5092565;28;20165;-43
2022/08/14 01:46:39;;;;;;;8.52;3.70;;;22.80;99.90;;;;;;5092466;28;20283;-42
2022/08/14 01:49:08;;;;;;;4.15;3.83;;;22.80;99.90;;;;;;5092349;28;20185;-44
2022/08/14 01:51:35;;;;;;;4.00;3.60;;;22.80;99.90;;;;;;5092251;28;20288;-43
2022/08/14 01:54:05;;;;;;;6.55;3.72;;;22.70;99.90;;;;;;5092143;28;20681;-44
2022/08/14 01:56:36;;;;;;;4.55;4.10;;;22.70;99.90;;;;;;5091996;28;20185;-43
2022/08/14 01:59:05;;;;;;;4.35;3.95;;;22.60;99.90;;;;;;5092299;28;20173;-43
2022/08/14 02:01:31;;;;;;;4.65;3.63;;;22.70;99.90;;;;;;5092000;28;20172;-44
2022/08/14 02:03:56;;;;;;;4.22;3.83;;;22.60;99.90;;;;;;5091981;28;20583;-44
2022/08/14 02:06:23;;;;;;;5.43;3.75;;;22.50;99.90;;;;;;5092186;28;20177;-51
2022/08/14 02:08:49;;;;;;;4.70;3.60;;;22.50;99.90;;;;;;5092114;28;20192;-48
2022/08/14 02:11:21;;;;;;;5.15;3.20;;;22.40;99.90;;;;;;5091797;28;20161;-45
2022/08/14 02:13:59;;;;;;;7.07;3.65;;;22.50;99.90;;;;;;5091577;28;20249;-51
2022/08/14 02:16:28;;;;;;;7.40;4.05;;;22.40;99.90;;;;;;5091910;28;20188;-50
2022/08/14 02:18:57;;;;;;;4.93;4.00;;;22.40;99.90;;;;;;5091791;28;20193;-47
2022/08/14 02:21:23;;;;;;;6.88;3.80;;;22.30;99.90;;;;;;5091829;28;20180;-53
2022/08/14 02:23:51;;;;;;;4.03;3.63;;;22.30;99.90;;;;;;5091996;28;20172;-51
2022/08/14 02:26:26;;;;;;;5.97;4.03;;;22.30;99.90;;;;;;5091749;28;20161;-53
2022/08/14 02:28:58;;;;;;;7.10;4.32;;;22.30;99.90;;;;;;5091707;28;20164;-51
2022/08/14 02:31:28;;;;;;;4.93;4.07;;;22.30;99.90;;;;;;5091884;28;20244;-46
2022/08/14 02:33:55;;;;;;;4.88;4.40;;;22.30;99.90;;;;;;5091934;28;20241;-46
2022/08/14 02:36:21;;;;;;;6.40;4.18;;;22.30;99.90;;;;;;5091963;28;20170;-46
2022/08/14 02:38:47;;;;;;;5.82;4.40;;;22.30;99.90;;;;;;5093781;28;20162;-53
2022/08/14 02:41:13;;;;;;;5.68;4.10;;;22.30;99.90;;;;;;5095758;28;20169;-43
2022/08/14 02:43:39;;;;;;;4.85;4.25;;;22.20;99.90;;;;;;5096067;28;20172;-53
2022/08/14 02:46:08;;;;;;;5.50;4.10;;;22.20;99.90;;;;;;5095661;28;20188;-54
2022/08/14 02:48:41;;;;;;;4.57;4.15;;;22.20;99.90;;;;;;5095751;28;20165;-51
2022/08/14 02:51:10;;;;;;;7.28;4.60;;;22.10;99.90;;;;;;5095406;28;20161;-49
2022/08/14 02:53:39;;;;;;;5.47;4.97;;;22.00;99.90;;;;;;5095612;28;20165;-48
2022/08/14 02:56:05;;;;;;;6.32;4.60;;;21.90;99.90;;;;;;5095334;28;20169;-53
2022/08/14 02:58:36;;;;;;;4.53;4.13;;;21.80;99.90;;;;;;5095353;28;20252;-53
2022/08/14 03:01:02;;;;;;;4.90;4.40;;;22.00;99.90;;;;;;5095522;28;20196;-53
2022/08/14 03:03:28;;;;;;;4.88;4.18;;;22.00;99.90;;;;;;5095315;28;20176;-54
2022/08/14 03:05:54;;;;;;;5.05;4.55;;;22.00;99.90;;;;;;5095515;28;20173;-52
2022/08/14 03:08:19;;;;;;;5.22;4.20;;;22.10;99.90;;;;;;5095466;28;20174;-51
2022/08/14 03:10:46;;;;;;;5.45;4.22;;;22.10;99.90;;;;;;5094662;28;20162;-53
2022/08/14 03:13:12;;;;;;;5.07;4.57;;;22.00;99.90;;;;;;5095294;28;20265;-46
2022/08/14 03:15:45;;;;;;;5.32;4.35;;;22.00;99.90;;;;;;5095365;28;20165;-50
2022/08/14 03:18:12;;;;;;;5.32;4.53;;;21.90;99.90;;;;;;5095343;28;20248;-51
2022/08/14 03:20:38;;;;;;;11.63;6.25;;;21.90;99.90;;;;;;5095402;28;20196;-52
2022/08/14 03:23:04;;;;;;;9.57;6.85;;;21.90;99.90;;;;;;5076714;28;20219;-49
2022/08/14 03:25:32;;;;;;;7.15;5.20;;;21.80;99.90;;;;;;5094903;28;20177;-53
2022/08/14 03:28:00;;;;;;;28.58;14.23;;;21.80;99.90;;;;;;5095035;28;20258;-53
2022/08/14 03:30:27;;;;;;;11.95;7.10;;;21.80;99.90;;;;;;5094731;28;20184;-53
2022/08/14 03:32:52;;;;;;;19.20;10.70;;;21.90;99.90;;;;;;5094634;28;20205;-45
2022/08/14 03:35:18;;;;;;;27.40;15.98;;;21.90;99.90;;;;;;5094699;28;20177;-52
2022/08/14 03:37:44;;;;;;;39.30;21.17;;;21.90;99.90;;;;;;5094834;28;20253;-52
2022/08/14 03:40:10;;;;;;;33.78;19.98;;;22.00;99.90;;;;;;5094870;28;20241;-53
2022/08/14 03:42:38;;;;;;;19.05;12.20;;;22.00;99.90;;;;;;5094764;28;20183;-53
2022/08/14 03:45:05;;;;;;;7.82;6.35;;;22.00;99.90;;;;;;5094386;28;20177;-51
2022/08/14 03:47:31;;;;;;;8.13;5.68;;;22.00;99.90;;;;;;5094634;28;20181;-53
2022/08/14 03:49:57;;;;;;;9.27;6.97;;;22.00;99.90;;;;;;5093982;28;20244;-47
2022/08/14 03:52:23;;;;;;;7.25;5.75;;;21.90;99.90;;;;;;5094257;28;20284;-51
2022/08/14 03:54:49;;;;;;;10.27;8.23;;;21.90;99.90;;;;;;5094090;28;20161;-45
2022/08/14 03:57:15;;;;;;;11.07;8.25;;;21.90;99.90;;;;;;5094010;28;20165;-45
2022/08/14 03:59:42;;;;;;;6.35;5.55;;;21.80;99.90;;;;;;5094518;28;20165;-43
2022/08/14 04:02:07;;;;;;;8.98;7.70;;;21.80;99.90;;;;;;5094329;28;20161;-51
2022/08/14 04:04:33;;;;;;;9.30;7.40;;;21.80;99.90;;;;;;5094191;28;20165;-51
2022/08/14 04:06:59;;;;;;;13.35;5.80;;;21.80;99.90;;;;;;5094069;28;20173;-51
2022/08/14 04:09:26;;;;;;;7.07;5.80;;;21.90;99.90;;;;;;5094321;28;20260;-44
2022/08/14 04:11:51;;;;;;;9.60;8.00;;;21.90;99.90;;;;;;5093949;28;20245;-43
2022/08/14 04:14:17;;;;;;;6.75;5.65;;;21.90;99.90;;;;;;5075806;28;20217;-52
2022/08/14 04:16:45;;;;;;;8.18;5.68;;;21.80;99.90;;;;;;5075759;28;20185;-43
2022/08/14 04:19:10;;;;;;;5.53;5.03;;;21.90;99.90;;;;;;5076571;28;20165;-47
2022/08/14 04:21:36;;;;;;;13.02;10.13;;;21.80;99.90;;;;;;5093798;28;20175;-43
2022/08/14 04:24:02;;;;;;;6.25;5.65;;;21.10;99.90;;;;;;5075660;28;20197;-48
2022/08/14 04:26:29;;;;;;;15.13;13.13;;;21.80;99.90;;;;;;5093610;28;20227;-52
2022/08/14 04:28:56;;;;;;;22.85;17.98;;;21.80;99.90;;;;;;5093899;28;20165;-42
2022/08/14 04:31:23;;;;;;;14.50;11.80;;;21.80;99.90;;;;;;5093531;28;20258;-43
2022/08/14 04:33:51;;;;;;;21.88;17.10;;;21.80;99.90;;;;;;5093586;28;20203;-43
2022/08/14 04:36:17;;;;;;;16.50;12.90;;;21.90;99.90;;;;;;5093558;28;20193;-43
2022/08/14 04:44:11;;;;;;;39.78;31.02;;;22.00;99.90;;;;;;5093790;28;20208;-42
2022/08/14 04:46:36;;;;;;;37.78;28.65;;;21.90;99.90;;;;;;5093287;28;20169;-42
2022/08/14 04:49:03;;;;;;;40.95;32.80;;;22.00;99.90;;;;;;5075122;28;20571;-42
2022/08/14 04:51:30;;;;;;;16.00;13.95;;;22.00;99.90;;;;;;5093177;28;20623;-42
2022/08/14 04:53:56;;;;;;;8.85;7.00;;;22.00;99.90;;;;;;5093432;28;20181;-42
2022/08/14 04:56:24;;;;;;;16.92;12.90;;;22.00;99.90;;;;;;5093143;28;20189;-43
2022/08/14 04:58:56;;;;;;;10.88;9.75;;;21.90;99.90;;;;;;5093306;28;20208;-43
2022/08/14 05:01:23;;;;;;;7.45;6.57;;;22.00;99.90;;;;;;5092373;28;20178;-42
2022/08/14 05:03:50;;;;;;;7.10;6.40;;;22.00;99.90;;;;;;5093224;28;20165;-43
2022/08/14 05:06:15;;;;;;;8.15;7.35;;;21.90;99.90;;;;;;5092886;28;20201;-45
2022/08/14 05:08:42;;;;;;;9.38;7.82;;;22.00;99.90;;;;;;5093254;28;20663;-43
2022/08/14 05:11:09;;;;;;;7.18;6.47;;;22.00;99.90;;;;;;5093457;28;20181;-42
2022/08/14 05:13:35;;;;;;;7.93;5.75;;;22.00;99.90;;;;;;5092549;28;20702;-43
2022/08/14 05:16:02;;;;;;;6.75;6.03;;;22.00;99.90;;;;;;5093031;28;20225;-42
2022/08/14 05:18:33;;;;;;;9.40;7.68;;;22.10;99.90;;;;;;5092595;28;20261;-42
2022/08/14 05:21:01;;;;;;;11.88;10.20;;;22.10;99.90;;;;;;5092661;28;20169;-42
2022/08/14 05:23:30;;;;;;;11.93;8.02;;;22.10;99.90;;;;;;5092592;28;20680;-43
2022/08/14 05:26:11;;;;;;;18.52;16.42;;;22.20;99.90;;;;;;5092791;28;20261;-42
2022/08/14 05:28:43;;;;;;;7.80;7.10;;;22.30;99.90;;;;;;5093084;28;20309;-43
2022/08/14 05:31:11;;;;;;;8.48;7.63;;;22.40;99.90;;;;;;5092653;28;20256;-43
2022/08/14 05:33:38;;;;;;;7.88;6.85;;;22.40;99.90;;;;;;5092606;28;20165;-42
2022/08/14 05:36:09;;;;;;;6.85;6.10;;;22.50;99.90;;;;;;5091984;28;20644;-43
2022/08/14 05:38:39;;;;;;;6.55;5.88;;;22.60;99.90;;;;;;5092410;28;20541;-42
2022/08/14 05:41:11;;;;;;;8.13;6.35;;;22.60;99.90;;;;;;5092504;28;20166;-42
2022/08/14 05:43:39;;;;;;;5.57;5.07;;;22.70;99.90;;;;;;5092602;28;20222;-42
2022/08/14 05:46:05;;;;;;;6.38;5.78;;;22.70;99.90;;;;;;5092192;28;20170;-42
2022/08/14 05:48:31;;;;;;;5.93;5.07;;;22.80;99.90;;;;;;5091440;28;20532;-44
2022/08/14 05:50:56;;;;;;;7.00;5.57;;;22.80;99.90;;;;;;5092410;28;20222;-42
2022/08/14 05:53:24;;;;;;;5.93;5.32;;;22.90;99.90;;;;;;5092181;28;20212;-44
2022/08/14 05:55:51;;;;;;;5.65;5.15;;;23.00;99.90;;;;;;5092182;28;20172;-42
2022/08/14 05:58:16;;;;;;;5.97;5.35;;;23.00;99.90;;;;;;5092211;28;20222;-46
2022/08/14 06:00:43;;;;;;;6.18;5.55;;;23.00;99.90;;;;;;5092097;28;20521;-48
2022/08/14 06:03:15;;;;;;;5.93;5.32;;;23.10;99.90;;;;;;5092270;28;20720;-46
2022/08/14 06:05:43;;;;;;;6.75;6.15;;;23.20;99.90;;;;;;5092559;28;20169;-50
2022/08/14 06:08:29;;;;;;;6.85;6.03;;;23.30;99.90;;;;;;5092252;28;20192;-43
2022/08/14 06:11:01;;;;;;;7.00;6.32;;;23.30;99.90;;;;;;5091934;28;20168;-47
2022/08/14 06:13:28;;;;;;;7.22;5.55;;;23.40;99.90;;;;;;5091432;28;20303;-52
2022/08/14 06:15:54;;;;;;;10.18;5.95;;;23.40;99.90;;;;;;5091825;28;20201;-44
2022/08/14 06:18:20;;;;;;;6.38;5.75;;;23.30;99.90;;;;;;5091903;28;20197;-49
2022/08/14 06:20:45;;;;;;;6.53;5.68;;;23.40;99.90;;;;;;5091167;28;20217;-45
2022/08/14 06:23:11;;;;;;;7.18;6.38;;;23.50;99.90;;;;;;5092151;28;20689;-51
2022/08/14 06:25:37;;;;;;;6.28;5.68;;;23.50;99.90;;;;;;5092018;28;20161;-50
2022/08/14 06:28:03;;;;;;;6.38;5.75;;;23.80;99.90;;;;;;5092066;28;20536;-42
2022/08/14 06:30:31;;;;;;;7.28;5.78;;;23.80;99.90;;;;;;5091829;28;20543;-43
2022/08/14 06:32:57;;;;;;;6.35;5.75;;;23.90;99.90;;;;;;5091626;28;20228;-42
2022/08/14 06:35:23;;;;;;;6.72;5.78;;;23.80;99.90;;;;;;5091707;28;20305;-52
2022/08/14 06:37:52;;;;;;;7.28;5.97;;;23.80;99.90;;;;;;5091485;28;20640;-44
2022/08/14 06:40:35;;;;;;;6.57;5.97;;;23.90;99.90;;;;;;5073121;28;20644;-45
2022/08/14 06:43:04;;;;;;;7.05;6.35;;;24.00;99.90;;;;;;5091317;28;20169;-44
2022/08/14 06:45:31;;;;;;;8.25;6.10;;;24.10;99.90;;;;;;5091477;28;20222;-47
2022/08/14 06:47:56;;;;;;;8.85;6.40;;;24.10;99.90;;;;;;5090491;28;20172;-43
2022/08/14 06:50:23;;;;;;;6.90;5.95;;;24.20;99.90;;;;;;5090150;28;20563;-50
2022/08/14 06:52:49;;;;;;;5.90;5.30;;;24.20;99.90;;;;;;5090508;28;20691;-51
2022/08/14 06:55:17;;;;;;;6.70;6.10;;;24.40;99.90;;;;;;5090585;28;20165;-51
2022/08/14 06:57:44;;;;;;;6.03;5.43;;;24.70;99.90;;;;;;5090537;28;20169;-44
2022/08/14 07:00:22;;;;;;;6.82;6.13;;;24.80;99.90;;;;;;5091113;28;20170;-43
2022/08/14 07:05:45;;;;;;;10.48;5.45;;;24.90;99.90;;;;;;5091669;28;20635;-43
2022/08/14 07:08:16;;;;;;;7.47;6.15;;;25.00;99.90;;;;;;5091686;28;20625;-43
2022/08/14 07:10:42;;;;;;;5.85;5.25;;;25.10;99.90;;;;;;5091287;28;20171;-42
2022/08/14 07:13:09;;;;;;;6.13;5.63;;;25.20;99.90;;;;;;5091404;28;20705;-42
2022/08/14 07:15:35;;;;;;;5.90;5.18;;;25.30;99.90;;;;;;5091351;28;20245;-43
2022/08/14 07:18:02;;;;;;;6.65;5.63;;;25.30;99.90;;;;;;5073296;28;20185;-43
2022/08/14 07:20:28;;;;;;;7.10;6.40;;;25.30;99.90;;;;;;5091536;28;20179;-43
2022/08/14 07:22:57;;;;;;;6.22;5.53;;;25.40;99.90;;;;;;5091216;28;20173;-43
2022/08/14 07:25:24;;;;;;;6.43;5.82;;;25.50;99.90;;;;;;5094090;28;20166;-42
2022/08/14 07:27:50;;;;;;;7.50;6.18;;;25.70;99.90;;;;;;5076795;28;20648;-42
2022/08/14 07:30:16;;;;;;;6.03;5.45;;;25.80;99.90;;;;;;5094883;28;20169;-46
2022/08/14 07:32:42;;;;;;;6.10;5.57;;;25.80;99.90;;;;;;5094916;28;20301;-43
2022/08/14 07:35:08;;;;;;;6.13;5.55;;;25.80;99.90;;;;;;5095059;28;20590;-43
2022/08/14 07:37:33;;;;;;;8.30;5.28;;;25.90;99.90;;;;;;5094732;28;20218;-43
2022/08/14 07:40:00;;;;;;;6.43;5.82;;;25.90;99.90;;;;;;5094615;28;20515;-42
2022/08/14 07:42:27;;;;;;;6.15;5.55;;;26.10;99.90;;;;;;5094570;28;20165;-42
2022/08/14 07:44:53;;;;;;;6.90;6.28;;;26.10;99.90;;;;;;5094765;28;20169;-42
2022/08/14 07:47:18;;;;;;;10.15;6.05;;;26.30;99.90;;;;;;5076403;28;20621;-43
2022/08/14 07:50:06;;;;;;;6.07;5.47;;;26.30;99.90;;;;;;5094405;28;20214;-43
2022/08/14 07:52:33;;;;;;;7.57;5.55;;;26.30;99.90;;;;;;5094189;28;20224;-42
2022/08/14 07:54:59;;;;;;;6.68;6.07;;;26.50;99.90;;;;;;5094259;28;20169;-42
2022/08/14 07:57:26;;;;;;;6.43;5.82;;;26.60;99.90;;;;;;5094538;28;20173;-42
2022/08/14 07:59:52;;;;;;;6.18;5.57;;;26.70;99.90;;;;;;5094178;28;20165;-43
2022/08/14 08:02:18;;;;;;;11.02;6.15;;;26.70;99.90;;;;;;5094233;28;20291;-42
2022/08/14 08:04:45;;;;;;;6.90;6.20;;;26.80;99.90;;;;;;5094089;28;20184;-43
2022/08/14 08:07:12;;;;;;;6.70;6.10;;;26.80;99.90;;;;;;5093975;28;20173;-45
2022/08/14 08:09:47;;;;;;;5.93;5.32;;;26.80;99.90;;;;;;5094507;28;20168;-44
2022/08/14 08:12:15;;;;;;;5.97;5.40;;;27.00;99.90;;;;;;5093836;28;20204;-44
2022/08/14 08:14:42;;;;;;;6.20;5.63;;;27.00;99.90;;;;;;5094167;28;20296;-43
2022/08/14 08:17:09;;;;;;;6.72;6.10;;;27.00;99.90;;;;;;5094210;28;20157;-43
2022/08/14 08:19:36;;;;;;;6.75;5.82;;;27.40;99.90;;;;;;5093957;28;20245;-46
2022/08/14 08:22:02;;;;;;;9.35;5.85;;;27.40;99.90;;;;;;5094112;28;20173;-44
2022/08/14 08:24:28;;;;;;;6.68;6.07;;;27.50;99.90;;;;;;5093988;28;20168;-43
2022/08/14 08:26:53;;;;;;;6.18;5.57;;;27.60;99.90;;;;;;5093706;28;20624;-43
2022/08/14 08:29:21;;;;;;;7.05;6.15;;;27.60;99.90;;;;;;5093709;28;20176;-43
2022/08/14 08:31:50;;;;;;;6.35;5.75;;;27.50;99.90;;;;;;5093778;28;20284;-43
2022/08/14 08:34:17;;;;;;;6.10;5.50;;;27.70;99.90;;;;;;5093843;28;20248;-43
2022/08/14 08:36:43;;;;;;;6.88;6.25;;;27.70;99.90;;;;;;5093340;28;20221;-49
2022/08/14 08:39:10;;;;;;;8.18;6.25;;;27.80;99.90;;;;;;5094078;28;20169;-51
2022/08/14 08:41:47;;;;;;;7.15;5.38;;;27.70;99.90;;;;;;5093458;28;20157;-43
2022/08/14 08:44:13;;;;;;;6.22;5.15;;;28.00;99.90;;;;;;5093376;28;20213;-47
2022/08/14 08:46:39;;;;;;;10.00;5.63;;;28.10;99.90;;;;;;5093880;28;20173;-44
2022/08/14 08:49:05;;;;;;;6.50;5.90;;;28.10;99.90;;;;;;5093361;28;20161;-45
2022/08/14 08:51:34;;;;;;;5.65;5.15;;;28.20;99.90;;;;;;5093257;28;20156;-44
2022/08/14 08:54:12;;;;;;;6.28;5.50;;;28.20;99.90;;;;;;5093216;28;20306;-42
2022/08/14 08:56:43;;;;;;;7.85;5.88;;;28.30;99.90;;;;;;5093528;28;20164;-44
2022/08/14 08:59:23;;;;;;;5.68;5.20;;;28.20;99.90;;;;;;5093105;28;20176;-42
2022/08/14 09:01:58;;;;;;;5.93;5.43;;;28.50;99.90;;;;;;5093041;28;20177;-43
2022/08/14 09:04:36;;;;;;;6.43;5.72;;;28.60;99.90;;;;;;5092673;28;20172;-43
2022/08/14 09:07:03;;;;;;;5.65;5.13;;;28.80;99.90;;;;;;5093012;28;20160;-43
2022/08/14 09:09:30;;;;;;;7.07;5.43;;;28.90;99.90;;;;;;5092724;28;20524;-43
2022/08/14 09:11:59;;;;;;;5.93;5.43;;;28.80;99.90;;;;;;5092580;28;20554;-42
2022/08/14 09:14:28;;;;;;;5.35;4.85;;;29.10;99.90;;;;;;5092419;28;20634;-42
2022/08/14 09:16:56;;;;;;;5.88;5.38;;;28.90;99.90;;;;;;5093096;28;20173;-42
2022/08/14 09:19:22;;;;;;;5.30;4.80;;;29.00;99.90;;;;;;5092864;28;20255;-41
2022/08/14 09:21:48;;;;;;;5.70;5.05;;;29.30;99.90;;;;;;5096278;28;20157;-42
2022/08/14 09:24:14;;;;;;;5.53;4.95;;;29.30;99.90;;;;;;5102891;28;20209;-42
2022/08/14 09:26:42;;;;;;;5.38;4.88;;;29.40;99.90;;;;;;5103249;28;20240;-42
2022/08/14 09:29:08;;;;;;;6.50;4.70;;;29.60;99.90;;;;;;5100913;28;20319;-44
2022/08/14 09:31:36;;;;;;;5.35;4.50;;;29.60;99.90;;;;;;5092245;28;20210;-46
2022/08/14 09:34:39;;;;;;;5.32;4.70;;;29.40;99.90;;;;;;5091339;28;20173;-44
2022/08/14 09:37:13;;;;;;;7.05;5.07;;;29.60;99.90;;;;;;5092506;28;20171;-43
2022/08/14 09:40:01;;;;;;;7.60;6.07;;;29.80;99.90;;;;;;5092683;28;20244;-44
2022/08/14 09:43:09;;;;;;;4.60;4.20;;;29.80;99.90;;;;;;5092413;28;20218;-45
2022/08/14 09:45:57;;;;;;;6.75;6.05;;;30.00;99.90;;;;;;5075309;28;20204;-43
2022/08/14 09:48:25;;;;;;;8.35;5.07;;;30.10;99.90;;;;;;5092135;28;20247;-43
2022/08/14 09:50:53;;;;;;;8.05;5.80;;;30.30;99.90;;;;;;5092506;28;20173;-43
2022/08/14 09:53:43;;;;;;;8.48;6.00;;;30.40;99.90;;;;;;5092293;28;20220;-43
2022/08/14 09:56:10;;;;;;;7.10;5.20;;;30.50;99.90;;;;;;5074571;28;20524;-44
2022/08/14 09:58:45;;;;;;;4.75;4.35;;;30.50;99.90;;;;;;5092653;28;20309;-43
2022/08/14 10:01:13;;;;;;;6.03;5.32;;;30.50;99.90;;;;;;5092146;28;20163;-46
2022/08/14 10:03:54;;;;;;;15.68;6.07;;;30.70;99.90;;;;;;5092393;28;20173;-43
2022/08/14 10:06:24;;;;;;;6.65;5.97;;;30.60;99.40;;;;;;5092251;28;20190;-52
2022/08/14 10:08:56;;;;;;;7.22;5.88;;;30.70;99.50;;;;;;5091982;28;20164;-52
2022/08/14 10:11:28;;;;;;;4.75;4.30;;;30.70;99.60;;;;;;5092181;28;20168;-50
2022/08/14 10:13:57;;;;;;;4.97;4.22;;;30.80;97.90;;;;;;5091922;28;20220;-52
2022/08/14 10:16:28;;;;;;;8.23;4.82;;;30.70;97.80;;;;;;5090934;28;20238;-52
2022/08/14 10:19:07;;;;;;;4.68;4.07;;;30.80;97.30;;;;;;5091884;28;20255;-48
2022/08/14 10:21:35;;;;;;;5.35;4.85;;;30.80;96.90;;;;;;5091392;28;20167;-45
2022/08/14 10:24:07;;;;;;;7.47;5.20;;;31.10;97.50;;;;;;5091585;28;20564;-41
2022/08/14 10:26:33;;;;;;;4.57;4.18;;;31.10;93.30;;;;;;5091135;28;20655;-42
2022/08/14 10:29:11;;;;;;;10.23;6.97;;;31.20;94.90;;;;;;5091636;28;20161;-41
2022/08/14 10:31:41;;;;;;;8.15;4.57;;;31.40;94.20;;;;;;5091305;28;20192;-42
2022/08/14 10:34:14;;;;;;;4.50;4.10;;;31.40;94.20;;;;;;5091841;28;20193;-42
2022/08/14 10:36:43;;;;;;;6.13;3.97;;;31.30;93.30;;;;;;5091882;28;20165;-42
2022/08/14 10:39:24;;;;;;;5.38;4.50;;;31.40;93.90;;;;;;5091579;28;20157;-42
2022/08/14 10:42:06;;;;;;;4.55;4.10;;;31.60;94.10;;;;;;5091769;28;20577;-42
2022/08/14 10:44:37;;;;;;;4.43;4.07;;;31.80;92.60;;;;;;5091447;28;20182;-49
2022/08/14 10:47:08;;;;;;;4.80;4.05;;;31.60;91.30;;;;;;5091345;28;20176;-42
2022/08/14 10:49:49;;;;;;;5.80;5.20;;;31.60;91.60;;;;;;5091435;28;20240;-41
2022/08/14 10:52:24;;;;;;;9.40;7.70;;;31.80;91.60;;;;;;5091256;28;20582;-41
2022/08/14 10:54:51;;;;;;;4.25;3.85;;;32.00;91.70;;;;;;5091241;28;20263;-42
2022/08/14 10:57:29;;;;;;;6.72;4.40;;;32.10;91.20;;;;;;5091302;28;20172;-42
2022/08/14 11:00:12;;;;;;;5.57;4.47;;;31.90;90.10;;;;;;5075068;28;20178;-41
2022/08/14 11:02:40;;;;;;;5.55;4.85;;;31.80;90.20;;;;;;5095498;28;20495;-42
2022/08/14 11:05:13;;;;;;;3.90;3.60;;;32.10;90.20;;;;;;5095455;28;20165;-41
2022/08/14 11:07:42;;;;;;;7.88;4.05;;;32.00;86.50;;;;;;5094903;28;20157;-42
2022/08/14 11:10:18;;;;;;;5.45;3.60;;;32.10;85.50;;;;;;5095407;28;20261;-41
2022/08/14 11:12:46;;;;;;;5.03;3.80;;;32.20;86.30;;;;;;5093971;28;20208;-49
2022/08/14 11:15:21;;;;;;;9.02;3.42;;;32.40;85.10;;;;;;5094795;28;20177;-50
2022/08/14 11:17:49;;;;;;;4.05;3.60;;;32.40;83.60;;;;;;5095068;28;20198;-48
2022/08/14 11:20:20;;;;;;;3.63;3.25;;;32.50;85.10;;;;;;5094707;28;20171;-43
2022/08/14 11:22:53;;;;;;;4.72;3.42;;;32.30;81.80;;;;;;5094646;28;20546;-43
2022/08/14 11:25:22;;;;;;;3.58;3.28;;;32.50;81.00;;;;;;5094738;28;20164;-44
2022/08/14 11:27:52;;;;;;;3.60;3.00;;;32.60;80.80;;;;;;5094613;28;20175;-42
2022/08/14 11:30:21;;;;;;;5.00;4.32;;;32.80;80.30;;;;;;5094531;28;20260;-43
2022/08/14 11:32:48;;;;;;;4.53;3.95;;;32.70;79.30;;;;;;5094391;28;20291;-42
2022/08/14 11:35:18;;;;;;;4.55;3.63;;;32.90;80.70;;;;;;5094417;28;20526;-43
2022/08/14 11:37:55;;;;;;;5.38;4.03;;;32.80;77.80;;;;;;5094680;28;20177;-43
2022/08/14 11:40:24;;;;;;;5.13;3.20;;;32.70;75.80;;;;;;5094438;28;20180;-42
2022/08/14 11:42:54;;;;;;;5.53;3.28;;;32.90;75.60;;;;;;5094236;28;20193;-42
2022/08/14 11:45:23;;;;;;;4.88;3.10;;;33.10;75.70;;;;;;5093791;28;20152;-46
2022/08/14 11:47:49;;;;;;;5.65;2.85;;;33.20;75.70;;;;;;5094263;28;20255;-44
2022/08/14 11:50:25;;;;;;;7.90;6.07;;;32.70;75.00;;;;;;5094118;28;20210;-44
2022/08/14 11:52:52;;;;;;;6.40;3.70;;;32.90;75.90;;;;;;5094022;28;20270;-43
2022/08/14 11:55:18;;;;;;;6.50;5.15;;;32.90;75.80;;;;;;5094131;28;20244;-45
2022/08/14 11:57:44;;;;;;;3.30;3.10;;;32.80;74.90;;;;;;5093558;28;20191;-46
2022/08/14 12:00:16;;;;;;;3.53;3.22;;;32.70;73.70;;;;;;5093540;28;20161;-45
2022/08/14 12:02:54;;;;;;;3.38;3.15;;;33.00;74.80;;;;;;5075872;28;20529;-43
2022/08/14 12:05:38;;;;;;;3.00;2.80;;;33.20;75.10;;;;;;5094218;28;20177;-44
2022/08/14 12:08:08;;;;;;;7.20;3.97;;;33.10;74.70;;;;;;5094336;28;20173;-44
2022/08/14 12:10:38;;;;;;;4.22;3.83;;;33.20;75.00;;;;;;5093940;28;20556;-45
2022/08/14 12:13:16;;;;;;;9.43;6.07;;;33.10;72.50;;;;;;5093592;28;20277;-44
2022/08/14 12:15:43;;;;;;;5.88;5.30;;;33.30;72.10;;;;;;5094001;28;20168;-43
2022/08/14 12:18:10;;;;;;;6.13;5.18;;;33.10;70.80;;;;;;5093538;28;20176;-46
2022/08/14 12:20:41;;;;;;;7.65;4.28;;;33.40;71.90;;;;;;5094098;28;20208;-42
2022/08/14 12:23:23;;;;;;;14.02;10.15;;;33.50;71.50;;;;;;5093782;28;20656;-46
2022/08/14 12:25:49;;;;;;;3.40;3.10;;;33.50;71.00;;;;;;5093776;28;20247;-49
2022/08/14 12:28:15;;;;;;;3.88;3.58;;;33.70;70.70;;;;;;5093304;28;20632;-51
2022/08/14 12:30:44;;;;;;;4.38;3.97;;;33.70;71.00;;;;;;5093457;28;20176;-51
2022/08/14 12:33:31;;;;;;;4.53;4.13;;;33.70;72.40;;;;;;5093247;28;20196;-48
2022/08/14 12:36:02;;;;;;;3.40;3.10;;;33.80;71.70;;;;;;5093067;28;20169;-46
2022/08/14 12:38:54;;;;;;;3.20;2.90;;;33.70;68.30;;;;;;5093584;28;20172;-51
2022/08/14 12:41:21;;;;;;;3.25;2.95;;;33.60;67.90;;;;;;5071766;28;20176;-50
2022/08/14 12:43:52;;;;;;;3.33;3.03;;;33.70;69.80;;;;;;5093362;28;20165;-53
2022/08/14 12:46:32;;;;;;;3.58;3.00;;;33.40;69.80;;;;;;5093202;28;20829;-47
2022/08/14 12:49:05;;;;;;;3.28;3.05;;;33.70;70.40;;;;;;5093091;28;20195;-43
2022/08/14 12:51:31;;;;;;;3.55;3.15;;;33.40;70.20;;;;;;5093477;28;20167;-43
2022/08/14 12:53:58;;;;;;;3.60;3.30;;;33.10;71.30;;;;;;5093279;28;20640;-45
2022/08/14 12:56:26;;;;;;;4.10;3.10;;;33.10;70.90;;;;;;5093027;28;20161;-43
2022/08/14 12:58:55;;;;;;;5.60;3.17;;;33.50;70.60;;;;;;5092824;28;20629;-48
2022/08/14 13:01:30;;;;;;;3.35;3.05;;;33.60;69.40;;;;;;5093073;28;20175;-43
2022/08/14 13:04:07;;;;;;;3.17;2.88;;;33.50;67.70;;;;;;5092664;28;20205;-45
2022/08/14 13:06:37;;;;;;;5.05;3.63;;;33.70;69.40;;;;;;5074848;28;20168;-44
2022/08/14 13:09:04;;;;;;;4.57;3.28;;;34.10;69.40;;;;;;5092839;28;20516;-50